• Join FlightAware (Why Join?)
  • Login
  • US Flag 
04:40PM EDT


 

Airport Tracker/Info


-or-


 

Live Flight TrackerFlight Track Log ✈ VH-XFP ✈ 11-Dec-2013 ✈ YCAR / CVQ - YPPH / PER

Flight Track Log - Related Links

Times and Time Zones

All times are in EST time to prevent confusion due to time zone crossing. See the VH-XFP flight status page for this flight to view local times or setup timezone preferences in your user account.

Time Position Orientation Groundspeed Altitude Reporting Facility
EST Latitude Longitude Course Direction KTS MPH feet Rate Location/Type
10:37PM -25.2215 113.8504 155° Southeast 21,000  Level Aus ATC (Calculated)
10:40PM -25.3574 113.9217 155° Southeast  Level FlightAware Approximate
10:41PM -25.4173 113.9532 155° Southeast  Level FlightAware Approximate
10:42PM -25.4772 113.9847 155° Southeast  Level FlightAware Approximate
10:43PM -25.5371 114.0163 155° Southeast  Level FlightAware Approximate
10:44PM -25.5970 114.0479 155° Southeast  Level FlightAware Approximate
10:45PM -25.6569 114.0795 155° Southeast  Level FlightAware Approximate
10:46PM -25.7168 114.1112 155° Southeast  Level FlightAware Approximate
10:47PM -25.7767 114.1429 155° Southeast  Level FlightAware Approximate
10:48PM -25.8365 114.1746 155° Southeast  Level FlightAware Approximate
10:49PM -25.8964 114.2064 154° Southeast  Level FlightAware Approximate
10:50PM -25.9563 114.2382 154° Southeast  Level FlightAware Approximate
10:51PM -26.0161 114.2700 154° Southeast  Level FlightAware Approximate
10:52PM -26.0760 114.3018 154° Southeast  Level FlightAware Approximate
10:53PM -26.1358 114.3337 154° Southeast  Level FlightAware Approximate
10:54PM -26.1956 114.3656 154° Southeast  Level FlightAware Approximate
10:55PM -26.2554 114.3976 154° Southeast  Level FlightAware Approximate
10:56PM -26.3153 114.4296 154° Southeast  Level FlightAware Approximate
10:57PM -26.3751 114.4616 154° Southeast  Level FlightAware Approximate
10:57PM -26.4714 114.5132 154° Southeast 21,000  Level Aus ATC (Calculated)
10:58PM -26.4349 114.4936 154° Southeast  Level FlightAware Approximate
10:59PM -26.5338 114.5467 154° Southeast  Level FlightAware Approximate
11:00PM -26.5951 114.5797 154° Southeast  Level FlightAware Approximate
11:01PM -26.6564 114.6127 154° Southeast  Level FlightAware Approximate
11:02PM -26.7177 114.6457 154° Southeast  Level FlightAware Approximate
11:03PM -26.7791 114.6788 154° Southeast  Level FlightAware Approximate
11:04PM -26.8403 114.7119 154° Southeast  Level FlightAware Approximate
11:05PM -26.9016 114.7451 154° Southeast  Level FlightAware Approximate
11:06PM -26.9629 114.7783 154° Southeast  Level FlightAware Approximate
11:07PM -27.0242 114.8115 154° Southeast  Level FlightAware Approximate
11:08PM -27.0855 114.8447 154° Southeast  Level FlightAware Approximate
11:09PM -27.1467 114.8780 154° Southeast  Level FlightAware Approximate
11:10PM -27.2080 114.9114 154° Southeast  Level FlightAware Approximate
11:11PM -27.2692 114.9447 154° Southeast  Level FlightAware Approximate
11:12PM -27.3305 114.9781 154° Southeast  Level FlightAware Approximate
11:13PM -27.3917 115.0116 154° Southeast  Level FlightAware Approximate
11:14PM -27.4529 115.0451 154° Southeast  Level FlightAware Approximate
11:15PM -27.5141 115.0786 154° Southeast  Level FlightAware Approximate
11:15PM -27.5000 115.0708 154° Southeast 21,000  Level Aus ATC (Calculated)
11:16PM -27.5753 115.1121 154° Southeast  Level FlightAware Approximate
11:16PM -27.5535 115.1002 154° Southeast 21,000  Level Aus ATC (Calculated)
11:17PM -27.6061 115.1290 154° Southeast  Level FlightAware Approximate
11:17PM -27.6054 115.1286 154° Southeast 21,000  Level Aus ATC (Calculated)
11:18PM -27.6428 115.1491 154° Southeast  Level FlightAware Approximate
11:19PM -27.7125 115.1874 154° Southeast  Level FlightAware Approximate
11:20PM -27.7794 115.2243 154° Southeast  Level FlightAware Approximate
11:20PM -27.8061 115.2390 154° Southeast 21,000  Level Aus ATC (Calculated)
11:21PM -27.8464 115.2612 154° Southeast  Level FlightAware Approximate
11:22PM -27.8954 115.2882 154° Southeast  Level FlightAware Approximate
11:22PM -27.8939 115.2874 154° Southeast 21,000  Level Aus ATC (Calculated)
11:23PM -27.8939 115.2874 154° Southeast 21,000  Level Aus ATC (Calculated)
11:25PM -28.0166 115.3553 154° Southeast  Level FlightAware Approximate
11:26PM -28.0835 115.3923 154° Southeast  Level FlightAware Approximate
11:27PM -28.1504 115.4294 154° Southeast  Level FlightAware Approximate
11:28PM -28.2173 115.4666 154° Southeast  Level FlightAware Approximate
11:29PM -28.2842 115.5038 154° Southeast  Level FlightAware Approximate
11:30PM -28.3510 115.5410 154° Southeast  Level FlightAware Approximate
11:31PM -28.4179 115.5783 154° Southeast  Level FlightAware Approximate
11:32PM -28.4847 115.6157 154° Southeast  Level FlightAware Approximate
11:32PM -28.5528 115.6473 154° Southeast 263 303 21,000  Level Aus ATC (RADAR)
11:33PM -28.6398 115.6977 153° Southeast 259 298 21,000  Level Aus ATC (RADAR)
11:34PM -28.6886 115.7256 153° Southeast 259 298 21,000  Level Aus ATC (RADAR)
11:35PM -28.7376 115.7528 154° Southeast 256 295 21,000  Level Aus ATC (RADAR)
11:36PM -28.7757 115.7731 155° Southeast 255 293 21,000 -60 Level Aus ATC (RADAR)
11:37PM -28.8568 115.8169 155° Southeast 257 296 20,900 -120 Descending Aus ATC (RADAR)
11:37PM -28.8729 115.8258 154° Southeast 256 295 20,900  Level Aus ATC (RADAR)
11:37PM -28.9001 115.8418 153° Southeast 250 288 20,900  Level Aus ATC (RADAR)
11:38PM -28.9651 115.8793 153° Southeast 251 289 20,900  Level Aus ATC (RADAR)
11:39PM -29.0031 115.9005 154° Southeast 251 289 20,900  Level Aus ATC (RADAR)
11:40PM -29.0583 115.9316 154° Southeast 261 300 20,900  Level Aus ATC (RADAR)
11:40PM -29.0746 115.9394 157° South 257 296 20,900 120 Level Aus ATC (RADAR)
11:41PM -29.1506 115.9868 151° Southeast 259 298 21,100 120 Climbing Aus ATC (RADAR)
11:42PM -29.1670 115.9952 156° South 256 295 21,100  Level Aus ATC (RADAR)
11:43PM -29.2501 116.0423 154° Southeast 264 304 21,100  Level Aus ATC (RADAR)
11:43PM -29.2943 116.0643 157° South 257 296 21,100  Level Aus ATC (RADAR)
11:44PM -29.3442 116.0916 154° Southeast 257 296 21,100  Level Aus ATC (RADAR)
11:45PM -29.3941 116.1188 155° Southeast 258 297 21,100  Level Aus ATC (RADAR)
11:45PM -29.3993 116.1219 153° Southeast 258 297 21,100  Level Aus ATC (RADAR)
11:46PM -29.4874 116.1670 156° South 258 297 21,100  Level Aus ATC (RADAR)
11:47PM -29.5206 116.1872 152° Southeast 263 303 21,100  Level Aus ATC (RADAR)
11:47PM -29.5477 116.2021 154° Southeast 256 295 21,100  Level Aus ATC (RADAR)
11:48PM -29.5751 116.2154 157° South 254 292 21,100  Level Aus ATC (RADAR)
11:49PM -29.6358 116.2469 156° South 255 293 21,100  Level Aus ATC (RADAR)
11:49PM -29.6831 116.2571 169° South 259 298 21,100  Level Aus ATC (RADAR)
11:50PM -29.7245 116.2655 170° South 258 297 21,100  Level Aus ATC (RADAR)
11:50PM -29.7598 116.2735 169° South 256 295 21,100  Level Aus ATC (RADAR)
11:51PM -29.8126 116.2835 171° South 254 292 21,100  Level Aus ATC (RADAR)
11:52PM -29.9013 116.3050 168° South 258 297 21,100  Level Aus ATC (RADAR)
11:53PM -29.9432 116.3140 170° South 261 300 21,100  Level Aus ATC (RADAR)
11:54PM -30.0328 116.3348 169° South 261 300 21,100  Level Aus ATC (RADAR)
11:55PM -30.0922 116.3473 170° South 258 297 21,100  Level Aus ATC (RADAR)
11:55PM -30.1163 116.3527 169° South 262 302 21,100  Level Aus ATC (RADAR)
11:56PM -30.1577 116.3615 170° South 258 297 21,100  Level Aus ATC (RADAR)
11:56PM -30.1874 116.3685 169° South 259 298 21,100  Level Aus ATC (RADAR)
11:58PM -30.2702 116.3867 169° South 256 295 21,100  Level Aus ATC (RADAR)
11:58PM -30.3118 116.3961 169° South 259 298 21,100  Level Aus ATC (RADAR)
11:59PM -30.3532 116.4059 168° South 258 297 21,100  Level Aus ATC (RADAR)
11:59PM -30.4005 116.4170 169° South 259 298 21,100  Level Aus ATC (RADAR)
12:00AM -30.4476 116.4271 170° South 257 296 21,100  Level Aus ATC (RADAR)
12:01AM -30.4888 116.4368 169° South 257 296 21,100  Level Aus ATC (RADAR)
12:01AM -30.5298 116.4455 170° South 255 293 21,100  Level Aus ATC (RADAR)
12:02AM -30.5887 116.4597 168° South 258 297 21,100  Level Aus ATC (RADAR)
12:03AM -30.6297 116.4686 169° South 257 296 21,100  Level Aus ATC (RADAR)
12:03AM -30.6706 116.4779 169° South 256 295 21,100  Level Aus ATC (RADAR)
12:04AM -30.7174 116.4887 169° South 257 296 21,100  Level Aus ATC (RADAR)
12:04AM -30.7581 116.4980 169° South 254 292 21,100  Level Aus ATC (RADAR)
12:05AM -30.8107 116.5099 169° South 256 295 21,100  Level Aus ATC (RADAR)
12:06AM -30.8460 116.5183 168° South 258 297 21,100  Level Aus ATC (RADAR)
12:06AM -30.8927 116.5174 181° South 258 297 21,100  Level Aus ATC (RADAR)
12:07AM -30.9610 116.5027 190° South 252 290 21,100  Level Aus ATC (RADAR)
12:08AM -30.9897 116.4974 189° South 252 290 21,100  Level Aus ATC (RADAR)
12:08AM -31.0127 116.4935 188° South 251 289 21,100 -840 Level Aus ATC (RADAR)
12:09AM -31.0790 116.4823 188° South 271 312 20,100 -1,320 Descending Aus ATC (RADAR)
12:10AM -31.1326 116.4727 189° South 292 336 19,100 -1,620 Descending Aus ATC (RADAR)
12:10AM -31.1920 116.4630 188° South 286 329 17,900 -1,440 Descending Aus ATC (RADAR)
12:11AM -31.2245 116.4571 189° South 285 328 17,400 -1,500 Descending Aus ATC (RADAR)
12:11AM -31.2775 116.4476 189° South 290 334 16,300 -1,680 Descending Aus ATC (RADAR)
12:13AM -31.3725 116.4305 189° South 299 344 14,400 -1,620 Descending Aus ATC (RADAR)
12:13AM -31.4069 116.4247 188° South 299 344 13,800 -1,500 Descending Aus ATC (RADAR)
12:14AM -31.4603 116.4151 189° South 291 335 12,800 -1,560 Descending Aus ATC (RADAR)
12:14AM -31.5050 116.3859 209° Southwest 281 323 11,700 -1,680 Descending Aus ATC (RADAR)
12:15AM -31.5404 116.3426 226° Southwest 271 312 10,600 -1,620 Descending Aus ATC (RADAR)
12:16AM -31.5833 116.2891 227° Southwest 264 304 9,300 -1,560 Descending Aus ATC (RADAR)
12:16AM -31.6040 116.2638 226° Southwest 257 296 8,700 -1,500 Descending Aus ATC (RADAR)
12:17AM -31.6620 116.1927 226° Southwest 254 292 6,900 -1,560 Descending Aus ATC (RADAR)
12:18AM -31.6824 116.1674 227° Southwest 253 291 6,300 -1,440 Descending Aus ATC (RADAR)
12:18AM -31.7103 116.1320 227° Southwest 248 285 5,500 -1,560 Descending Aus ATC (RADAR)
12:19AM -31.7218 116.1176 227° Southwest 242 278 5,000 -1,620 Descending Aus ATC (RADAR)
12:20AM -31.7726 116.0497 229° Southwest 230 265 3,300 -1,380 Descending Aus ATC (RADAR)
12:21AM -31.7956 116.0144 233° Southwest 197 227 2,500 -960 Descending Aus ATC (RADAR)
12:22AM -31.8455 115.9928 200° South 167 192 1,600 -720 Descending Aus ATC (RADAR)
12:23AM -31.8919 115.9793 194° South 128 147 800 -720 Descending Aus ATC (RADAR)
12:23AM -31.8998 115.9771 193° South 122 140 600 -600 Descending Aus ATC (RADAR)
12:23AM -31.9077 115.9747 194° South 118 136 500 -600 Descending Aus ATC (RADAR)
12:24AM -31.9254 115.9695 194° South 113 130 100 -720 Descending Aus ATC (RADAR)